sensor_id;sensor_type;location;lat;lon;timestamp;temperature;humidity
67133;HTU21D;54052;53.542;49.408;2022-08-19T00:00:48;16.55;48.98
67133;HTU21D;54052;53.542;49.408;2022-08-19T00:03:14;16.50;49.12
67133;HTU21D;54052;53.542;49.408;2022-08-19T00:05:40;16.47;49.09
67133;HTU21D;54052;53.542;49.408;2022-08-19T00:08:07;16.44;49.03
67133;HTU21D;54052;53.542;49.408;2022-08-19T00:10:33;16.40;48.79
67133;HTU21D;54052;53.542;49.408;2022-08-19T00:12:59;16.39;49.12
67133;HTU21D;54052;53.542;49.408;2022-08-19T00:15:25;16.32;49.45
67133;HTU21D;54052;53.542;49.408;2022-08-19T00:17:51;16.26;49.46
67133;HTU21D;54052;53.542;49.408;2022-08-19T00:20:20;16.18;49.62
67133;HTU21D;54052;53.542;49.408;2022-08-19T00:22:47;16.15;49.40
67133;HTU21D;54052;53.542;49.408;2022-08-19T00:25:14;16.08;49.64
67133;HTU21D;54052;53.542;49.408;2022-08-19T00:27:41;16.02;49.76
67133;HTU21D;54052;53.542;49.408;2022-08-19T00:30:08;16.01;49.42
67133;HTU21D;54052;53.542;49.408;2022-08-19T00:32:35;15.97;49.18
67133;HTU21D;54052;53.542;49.408;2022-08-19T00:35:02;15.93;49.11
67133;HTU21D;54052;53.542;49.408;2022-08-19T00:37:29;15.90;49.02
67133;HTU21D;54052;53.542;49.408;2022-08-19T00:39:55;15.89;49.00
67133;HTU21D;54052;53.542;49.408;2022-08-19T00:42:21;15.87;49.35
67133;HTU21D;54052;53.542;49.408;2022-08-19T00:44:47;15.85;49.02
67133;HTU21D;54052;53.542;49.408;2022-08-19T00:47:14;15.81;48.86
67133;HTU21D;54052;53.542;49.408;2022-08-19T00:49:44;15.80;49.11
67133;HTU21D;54052;53.542;49.408;2022-08-19T00:52:15;15.77;48.78
67133;HTU21D;54052;53.542;49.408;2022-08-19T00:54:43;15.76;49.02
67133;HTU21D;54052;53.542;49.408;2022-08-19T00:57:12;15.73;49.08
67133;HTU21D;54052;53.542;49.408;2022-08-19T00:59:43;15.70;49.21
67133;HTU21D;54052;53.542;49.408;2022-08-19T01:02:11;15.68;49.17
67133;HTU21D;54052;53.542;49.408;2022-08-19T01:04:38;15.66;49.08
67133;HTU21D;54052;53.542;49.408;2022-08-19T01:07:04;15.65;49.12
67133;HTU21D;54052;53.542;49.408;2022-08-19T01:09:30;15.62;49.21
67133;HTU21D;54052;53.542;49.408;2022-08-19T01:11:57;15.60;49.32
67133;HTU21D;54052;53.542;49.408;2022-08-19T01:14:23;15.60;49.16
67133;HTU21D;54052;53.542;49.408;2022-08-19T01:16:49;15.58;49.08
67133;HTU21D;54052;53.542;49.408;2022-08-19T01:19:31;15.54;49.44
67133;HTU21D;54052;53.542;49.408;2022-08-19T01:22:03;15.54;49.41
67133;HTU21D;54052;53.542;49.408;2022-08-19T01:24:31;15.53;49.47
67133;HTU21D;54052;53.542;49.408;2022-08-19T01:26:58;15.53;49.33
67133;HTU21D;54052;53.542;49.408;2022-08-19T01:29:24;15.52;49.77
67133;HTU21D;54052;53.542;49.408;2022-08-19T01:31:50;15.53;49.31
67133;HTU21D;54052;53.542;49.408;2022-08-19T01:34:18;15.53;49.22
67133;HTU21D;54052;53.542;49.408;2022-08-19T01:36:46;15.52;49.42
67133;HTU21D;54052;53.542;49.408;2022-08-19T01:39:22;15.48;49.17
67133;HTU21D;54052;53.542;49.408;2022-08-19T01:41:49;15.47;49.25
67133;HTU21D;54052;53.542;49.408;2022-08-19T01:44:15;15.47;48.95
67133;HTU21D;54052;53.542;49.408;2022-08-19T01:46:43;15.48;48.88
67133;HTU21D;54052;53.542;49.408;2022-08-19T01:49:09;15.47;49.15
67133;HTU21D;54052;53.542;49.408;2022-08-19T01:51:36;15.49;49.31
67133;HTU21D;54052;53.542;49.408;2022-08-19T01:54:03;15.48;49.54
67133;HTU21D;54052;53.542;49.408;2022-08-19T01:56:29;15.46;49.07
67133;HTU21D;54052;53.542;49.408;2022-08-19T01:59:04;15.51;49.05
67133;HTU21D;54052;53.542;49.408;2022-08-19T02:01:30;15.51;48.83
67133;HTU21D;54052;53.542;49.408;2022-08-19T02:03:58;15.55;48.48
67133;HTU21D;54052;53.542;49.408;2022-08-19T02:06:27;15.55;48.57
67133;HTU21D;54052;53.542;49.408;2022-08-19T02:08:53;15.56;48.34
67133;HTU21D;54052;53.542;49.408;2022-08-19T02:11:28;15.56;48.57
67133;HTU21D;54052;53.542;49.408;2022-08-19T02:13:55;15.60;48.47
67133;HTU21D;54052;53.542;49.408;2022-08-19T02:16:21;15.61;48.48
67133;HTU21D;54052;53.542;49.408;2022-08-19T02:18:47;15.68;48.73
67133;HTU21D;54052;53.542;49.408;2022-08-19T02:21:18;15.75;48.54
67133;HTU21D;54052;53.542;49.408;2022-08-19T02:23:45;15.84;48.22
67133;HTU21D;54052;53.542;49.408;2022-08-19T02:26:12;15.89;48.08
67133;HTU21D;54052;53.542;49.408;2022-08-19T02:28:40;15.91;47.82
67133;HTU21D;54052;53.542;49.408;2022-08-19T02:31:15;15.97;47.59
67133;HTU21D;54052;53.542;49.408;2022-08-19T02:33:41;16.02;47.68
67133;HTU21D;54052;53.542;49.408;2022-08-19T02:36:08;16.08;46.89
67133;HTU21D;54052;53.542;49.408;2022-08-19T02:38:35;16.33;46.96
67133;HTU21D;54052;53.542;49.408;2022-08-19T02:41:13;16.25;46.26
67133;HTU21D;54052;53.542;49.408;2022-08-19T02:43:40;16.20;46.24
67133;HTU21D;54052;53.542;49.408;2022-08-19T02:46:21;16.16;46.77
67133;HTU21D;54052;53.542;49.408;2022-08-19T02:48:51;16.25;45.60
67133;HTU21D;54052;53.542;49.408;2022-08-19T02:51:24;16.21;45.98
67133;HTU21D;54052;53.542;49.408;2022-08-19T02:53:50;16.26;45.79
67133;HTU21D;54052;53.542;49.408;2022-08-19T02:56:17;16.27;45.91
67133;HTU21D;54052;53.542;49.408;2022-08-19T02:58:44;16.42;45.94
67133;HTU21D;54052;53.542;49.408;2022-08-19T03:01:10;16.54;45.57
67133;HTU21D;54052;53.542;49.408;2022-08-19T03:03:37;16.55;45.94
67133;HTU21D;54052;53.542;49.408;2022-08-19T03:06:12;16.48;45.16
67133;HTU21D;54052;53.542;49.408;2022-08-19T03:08:41;16.42;45.90
67133;HTU21D;54052;53.542;49.408;2022-08-19T03:11:20;16.49;45.51
67133;HTU21D;54052;53.542;49.408;2022-08-19T03:13:47;16.42;45.63
67133;HTU21D;54052;53.542;49.408;2022-08-19T03:16:15;16.41;45.85
67133;HTU21D;54052;53.542;49.408;2022-08-19T03:18:42;16.43;46.08
67133;HTU21D;54052;53.542;49.408;2022-08-19T03:21:08;16.54;46.19
67133;HTU21D;54052;53.542;49.408;2022-08-19T03:23:34;16.71;46.19
67133;HTU21D;54052;53.542;49.408;2022-08-19T03:26:04;16.89;45.64
67133;HTU21D;54052;53.542;49.408;2022-08-19T03:28:30;16.91;45.48
67133;HTU21D;54052;53.542;49.408;2022-08-19T03:30:59;16.98;45.53
67133;HTU21D;54052;53.542;49.408;2022-08-19T03:33:26;17.08;45.57
67133;HTU21D;54052;53.542;49.408;2022-08-19T03:36:07;17.31;45.27
67133;HTU21D;54052;53.542;49.408;2022-08-19T03:38:36;17.32;45.01
67133;HTU21D;54052;53.542;49.408;2022-08-19T03:41:09;17.35;45.05
67133;HTU21D;54052;53.542;49.408;2022-08-19T03:43:40;17.43;45.05
67133;HTU21D;54052;53.542;49.408;2022-08-19T03:46:15;17.74;44.38
67133;HTU21D;54052;53.542;49.408;2022-08-19T03:48:43;19.94;39.70
67133;HTU21D;54052;53.542;49.408;2022-08-19T03:51:22;23.26;31.95
67133;HTU21D;54052;53.542;49.408;2022-08-19T03:53:48;24.97;28.92
67133;HTU21D;54052;53.542;49.408;2022-08-19T03:56:15;27.22;25.26
67133;HTU21D;54052;53.542;49.408;2022-08-19T03:58:41;28.70;23.33
67133;HTU21D;54052;53.542;49.408;2022-08-19T04:01:09;30.09;21.63
67133;HTU21D;54052;53.542;49.408;2022-08-19T04:03:37;31.81;19.01
67133;HTU21D;54052;53.542;49.408;2022-08-19T04:06:14;31.09;19.44
67133;HTU21D;54052;53.542;49.408;2022-08-19T04:08:42;29.34;22.17
67133;HTU21D;54052;53.542;49.408;2022-08-19T04:11:10;28.91;23.21
67133;HTU21D;54052;53.542;49.408;2022-08-19T04:13:36;27.05;26.02
67133;HTU21D;54052;53.542;49.408;2022-08-19T04:16:03;25.32;29.46
67133;HTU21D;54052;53.542;49.408;2022-08-19T04:18:30;23.61;32.57
67133;HTU21D;54052;53.542;49.408;2022-08-19T04:20:56;22.56;35.31
67133;HTU21D;54052;53.542;49.408;2022-08-19T04:23:23;21.66;37.67
67133;HTU21D;54052;53.542;49.408;2022-08-19T04:25:49;21.25;39.12
67133;HTU21D;54052;53.542;49.408;2022-08-19T04:28:15;20.80;39.53
67133;HTU21D;54052;53.542;49.408;2022-08-19T04:30:52;20.26;40.72
67133;HTU21D;54052;53.542;49.408;2022-08-19T04:33:20;19.91;41.95
67133;HTU21D;54052;53.542;49.408;2022-08-19T04:35:49;19.74;42.23
67133;HTU21D;54052;53.542;49.408;2022-08-19T04:38:17;19.71;43.22
67133;HTU21D;54052;53.542;49.408;2022-08-19T04:40:47;19.83;42.31
67133;HTU21D;54052;53.542;49.408;2022-08-19T04:43:33;19.57;43.35
67133;HTU21D;54052;53.542;49.408;2022-08-19T04:46:05;19.58;43.36
67133;HTU21D;54052;53.542;49.408;2022-08-19T04:48:31;19.44;43.44
67133;HTU21D;54052;53.542;49.408;2022-08-19T04:50:58;19.32;43.88
67133;HTU21D;54052;53.542;49.408;2022-08-19T04:55:56;19.66;43.53
67133;HTU21D;54052;53.542;49.408;2022-08-19T04:58:24;19.65;43.70
67133;HTU21D;54052;53.542;49.408;2022-08-19T05:00:51;19.73;43.65
67133;HTU21D;54052;53.542;49.408;2022-08-19T05:03:17;19.89;43.16
67133;HTU21D;54052;53.542;49.408;2022-08-19T05:05:45;19.98;43.13
67133;HTU21D;54052;53.542;49.408;2022-08-19T05:08:12;19.82;42.95
67133;HTU21D;54052;53.542;49.408;2022-08-19T05:10:39;19.67;43.28
67133;HTU21D;54052;53.542;49.408;2022-08-19T05:13:06;19.67;43.42
67133;HTU21D;54052;53.542;49.408;2022-08-19T05:15:34;19.68;43.13
67133;HTU21D;54052;53.542;49.408;2022-08-19T05:18:01;19.68;43.39
67133;HTU21D;54052;53.542;49.408;2022-08-19T05:20:45;19.81;43.84
67133;HTU21D;54052;53.542;49.408;2022-08-19T05:23:30;19.82;43.24
67133;HTU21D;54052;53.542;49.408;2022-08-19T05:25:56;19.97;43.55
67133;HTU21D;54052;53.542;49.408;2022-08-19T05:28:21;20.07;42.35
67133;HTU21D;54052;53.542;49.408;2022-08-19T05:30:48;20.10;42.72
67133;HTU21D;54052;53.542;49.408;2022-08-19T05:33:17;20.18;43.02
67133;HTU21D;54052;53.542;49.408;2022-08-19T05:35:43;20.19;42.52
67133;HTU21D;54052;53.542;49.408;2022-08-19T05:38:10;20.07;43.31
67133;HTU21D;54052;53.542;49.408;2022-08-19T05:40:39;20.19;42.90
67133;HTU21D;54052;53.542;49.408;2022-08-19T05:43:07;20.32;42.63
67133;HTU21D;54052;53.542;49.408;2022-08-19T05:45:39;20.24;42.29
67133;HTU21D;54052;53.542;49.408;2022-08-19T05:48:05;20.02;42.26
67133;HTU21D;54052;53.542;49.408;2022-08-19T05:50:31;19.95;42.77
67133;HTU21D;54052;53.542;49.408;2022-08-19T05:52:57;20.18;43.23
67133;HTU21D;54052;53.542;49.408;2022-08-19T05:55:23;20.42;41.97
67133;HTU21D;54052;53.542;49.408;2022-08-19T05:57:49;20.36;42.10
67133;HTU21D;54052;53.542;49.408;2022-08-19T06:00:15;20.29;42.23
67133;HTU21D;54052;53.542;49.408;2022-08-19T06:02:41;20.35;42.46
67133;HTU21D;54052;53.542;49.408;2022-08-19T06:05:08;20.48;41.76
67133;HTU21D;54052;53.542;49.408;2022-08-19T06:07:36;20.47;41.96
67133;HTU21D;54052;53.542;49.408;2022-08-19T06:10:05;20.59;42.92
67133;HTU21D;54052;53.542;49.408;2022-08-19T06:12:32;20.71;43.10
67133;HTU21D;54052;53.542;49.408;2022-08-19T06:15:04;20.91;41.74
67133;HTU21D;54052;53.542;49.408;2022-08-19T06:17:30;21.02;41.21
67133;HTU21D;54052;53.542;49.408;2022-08-19T06:19:57;21.06;41.53
67133;HTU21D;54052;53.542;49.408;2022-08-19T06:22:24;21.08;41.48
67133;HTU21D;54052;53.542;49.408;2022-08-19T06:24:50;21.23;41.53
67133;HTU21D;54052;53.542;49.408;2022-08-19T06:27:18;21.13;40.94
67133;HTU21D;54052;53.542;49.408;2022-08-19T06:29:44;21.15;41.39
67133;HTU21D;54052;53.542;49.408;2022-08-19T06:32:14;21.24;41.33
67133;HTU21D;54052;53.542;49.408;2022-08-19T06:34:40;21.32;40.20
67133;HTU21D;54052;53.542;49.408;2022-08-19T06:37:07;21.39;41.09
67133;HTU21D;54052;53.542;49.408;2022-08-19T06:39:39;21.58;40.97
67133;HTU21D;54052;53.542;49.408;2022-08-19T06:42:06;21.77;40.15
67133;HTU21D;54052;53.542;49.408;2022-08-19T06:44:35;21.95;40.04
67133;HTU21D;54052;53.542;49.408;2022-08-19T06:47:07;22.10;39.01
67133;HTU21D;54052;53.542;49.408;2022-08-19T06:49:34;22.12;39.19
67133;HTU21D;54052;53.542;49.408;2022-08-19T06:52:00;22.13;38.41
67133;HTU21D;54052;53.542;49.408;2022-08-19T06:54:27;22.14;38.65
67133;HTU21D;54052;53.542;49.408;2022-08-19T06:56:58;22.18;39.14
67133;HTU21D;54052;53.542;49.408;2022-08-19T06:59:28;22.39;39.54
67133;HTU21D;54052;53.542;49.408;2022-08-19T07:01:57;22.46;38.48
67133;HTU21D;54052;53.542;49.408;2022-08-19T07:04:27;22.28;37.83
67133;HTU21D;54052;53.542;49.408;2022-08-19T07:06:59;22.17;38.20
67133;HTU21D;54052;53.542;49.408;2022-08-19T07:09:27;22.10;39.24
67133;HTU21D;54052;53.542;49.408;2022-08-19T07:11:54;22.16;38.65
67133;HTU21D;54052;53.542;49.408;2022-08-19T07:14:24;22.22;38.76
67133;HTU21D;54052;53.542;49.408;2022-08-19T07:16:52;22.28;38.28
67133;HTU21D;54052;53.542;49.408;2022-08-19T07:19:21;22.44;38.36
67133;HTU21D;54052;53.542;49.408;2022-08-19T07:21:49;22.53;37.79
67133;HTU21D;54052;53.542;49.408;2022-08-19T07:24:23;22.54;37.50
67133;HTU21D;54052;53.542;49.408;2022-08-19T07:26:50;22.53;38.33
67133;HTU21D;54052;53.542;49.408;2022-08-19T07:29:17;22.62;37.82
67133;HTU21D;54052;53.542;49.408;2022-08-19T07:31:43;22.69;37.79
67133;HTU21D;54052;53.542;49.408;2022-08-19T07:34:11;22.77;37.62
67133;HTU21D;54052;53.542;49.408;2022-08-19T07:36:39;22.86;36.91
67133;HTU21D;54052;53.542;49.408;2022-08-19T07:39:10;22.85;36.26
67133;HTU21D;54052;53.542;49.408;2022-08-19T07:41:36;22.87;36.06
67133;HTU21D;54052;53.542;49.408;2022-08-19T07:44:03;22.85;36.38
67133;HTU21D;54052;53.542;49.408;2022-08-19T07:46:34;22.90;36.15
67133;HTU21D;54052;53.542;49.408;2022-08-19T07:49:01;23.02;36.19
67133;HTU21D;54052;53.542;49.408;2022-08-19T07:51:27;23.11;36.59
67133;HTU21D;54052;53.542;49.408;2022-08-19T07:53:54;23.10;36.71
67133;HTU21D;54052;53.542;49.408;2022-08-19T07:56:21;23.13;36.21
67133;HTU21D;54052;53.542;49.408;2022-08-19T07:58:49;23.17;35.34
67133;HTU21D;54052;53.542;49.408;2022-08-19T08:01:19;23.10;35.21
67133;HTU21D;54052;53.542;49.408;2022-08-19T08:03:48;23.10;35.69
67133;HTU21D;54052;53.542;49.408;2022-08-19T08:06:32;23.23;34.87
67133;HTU21D;54052;53.542;49.408;2022-08-19T08:09:22;23.41;35.36
67133;HTU21D;54052;53.542;49.408;2022-08-19T08:11:52;23.53;34.47
67133;HTU21D;54052;53.542;49.408;2022-08-19T08:14:22;23.31;35.05
67133;HTU21D;54052;53.542;49.408;2022-08-19T08:16:49;23.40;35.18
67133;HTU21D;54052;53.542;49.408;2022-08-19T08:19:21;23.53;34.82
67133;HTU21D;54052;53.542;49.408;2022-08-19T08:21:48;23.57;33.55
67133;HTU21D;54052;53.542;49.408;2022-08-19T08:24:15;23.54;33.85
67133;HTU21D;54052;53.542;49.408;2022-08-19T08:26:43;23.64;33.65
67133;HTU21D;54052;53.542;49.408;2022-08-19T08:29:11;23.65;33.16
67133;HTU21D;54052;53.542;49.408;2022-08-19T08:31:40;23.61;33.19
67133;HTU21D;54052;53.542;49.408;2022-08-19T08:34:07;23.56;33.36
67133;HTU21D;54052;53.542;49.408;2022-08-19T08:36:39;23.49;33.39
67133;HTU21D;54052;53.542;49.408;2022-08-19T08:39:14;23.54;33.56
67133;HTU21D;54052;53.542;49.408;2022-08-19T08:44:31;23.80;32.31
67133;HTU21D;54052;53.542;49.408;2022-08-19T08:47:03;23.66;32.29
67133;HTU21D;54052;53.542;49.408;2022-08-19T08:49:45;23.66;33.03
67133;HTU21D;54052;53.542;49.408;2022-08-19T08:52:18;23.77;32.33
67133;HTU21D;54052;53.542;49.408;2022-08-19T08:54:47;23.83;32.42
67133;HTU21D;54052;53.542;49.408;2022-08-19T08:57:20;23.81;32.58
67133;HTU21D;54052;53.542;49.408;2022-08-19T08:59:50;23.81;31.55
67133;HTU21D;54052;53.542;49.408;2022-08-19T09:02:19;23.74;31.99
67133;HTU21D;54052;53.542;49.408;2022-08-19T09:04:45;23.86;31.79
67133;HTU21D;54052;53.542;49.408;2022-08-19T09:07:49;23.73;32.06
67133;HTU21D;54052;53.542;49.408;2022-08-19T09:10:23;23.84;32.35
67133;HTU21D;54052;53.542;49.408;2022-08-19T09:13:44;23.94;32.22
67133;HTU21D;54052;53.542;49.408;2022-08-19T09:16:10;24.14;32.55
67133;HTU21D;54052;53.542;49.408;2022-08-19T09:18:50;24.27;32.13
67133;HTU21D;54052;53.542;49.408;2022-08-19T09:21:21;24.41;31.38
67133;HTU21D;54052;53.542;49.408;2022-08-19T09:23:49;24.34;31.49
67133;HTU21D;54052;53.542;49.408;2022-08-19T09:26:17;24.25;31.38
67133;HTU21D;54052;53.542;49.408;2022-08-19T09:28:47;24.20;31.37
67133;HTU21D;54052;53.542;49.408;2022-08-19T09:31:16;24.25;31.55
67133;HTU21D;54052;53.542;49.408;2022-08-19T09:33:42;24.32;31.62
67133;HTU21D;54052;53.542;49.408;2022-08-19T09:36:11;24.38;31.88
67133;HTU21D;54052;53.542;49.408;2022-08-19T09:38:38;24.50;31.41
67133;HTU21D;54052;53.542;49.408;2022-08-19T09:41:11;24.53;30.54
67133;HTU21D;54052;53.542;49.408;2022-08-19T09:43:40;24.54;30.38
67133;HTU21D;54052;53.542;49.408;2022-08-19T09:46:08;24.48;29.95
67133;HTU21D;54052;53.542;49.408;2022-08-19T09:48:40;24.49;30.18
67133;HTU21D;54052;53.542;49.408;2022-08-19T09:51:12;24.55;30.02
67133;HTU21D;54052;53.542;49.408;2022-08-19T09:53:44;24.56;29.69
67133;HTU21D;54052;53.542;49.408;2022-08-19T09:56:12;24.58;29.70
67133;HTU21D;54052;53.542;49.408;2022-08-19T09:58:39;24.60;29.52
67133;HTU21D;54052;53.542;49.408;2022-08-19T10:01:07;24.61;29.40
67133;HTU21D;54052;53.542;49.408;2022-08-19T10:03:35;24.51;29.64
67133;HTU21D;54052;53.542;49.408;2022-08-19T10:06:04;24.56;30.25
67133;HTU21D;54052;53.542;49.408;2022-08-19T10:08:33;24.62;29.97
67133;HTU21D;54052;53.542;49.408;2022-08-19T10:11:00;24.66;29.86
67133;HTU21D;54052;53.542;49.408;2022-08-19T10:13:29;24.74;28.72
67133;HTU21D;54052;53.542;49.408;2022-08-19T10:16:02;24.62;29.00
67133;HTU21D;54052;53.542;49.408;2022-08-19T10:18:28;24.70;29.48
67133;HTU21D;54052;53.542;49.408;2022-08-19T10:21:07;24.76;28.40
67133;HTU21D;54052;53.542;49.408;2022-08-19T10:23:35;24.73;28.74
67133;HTU21D;54052;53.542;49.408;2022-08-19T10:26:04;24.68;28.26
67133;HTU21D;54052;53.542;49.408;2022-08-19T10:28:35;24.69;28.23
67133;HTU21D;54052;53.542;49.408;2022-08-19T10:31:12;24.74;26.30
67133;HTU21D;54052;53.542;49.408;2022-08-19T10:33:39;24.69;26.88
67133;HTU21D;54052;53.542;49.408;2022-08-19T10:36:15;24.77;26.96
67133;HTU21D;54052;53.542;49.408;2022-08-19T10:38:44;24.84;26.68
67133;HTU21D;54052;53.542;49.408;2022-08-19T10:41:16;24.85;27.33
67133;HTU21D;54052;53.542;49.408;2022-08-19T10:43:43;24.85;25.95
67133;HTU21D;54052;53.542;49.408;2022-08-19T10:46:14;24.82;25.75
67133;HTU21D;54052;53.542;49.408;2022-08-19T10:48:41;24.73;26.33
67133;HTU21D;54052;53.542;49.408;2022-08-19T10:51:08;24.86;26.17
67133;HTU21D;54052;53.542;49.408;2022-08-19T10:53:52;24.94;26.16
67133;HTU21D;54052;53.542;49.408;2022-08-19T10:56:19;24.88;26.46
67133;HTU21D;54052;53.542;49.408;2022-08-19T10:59:04;24.86;26.84
67133;HTU21D;54052;53.542;49.408;2022-08-19T11:01:31;24.94;27.02
67133;HTU21D;54052;53.542;49.408;2022-08-19T11:03:59;25.06;26.68
67133;HTU21D;54052;53.542;49.408;2022-08-19T11:06:26;25.24;26.51
67133;HTU21D;54052;53.542;49.408;2022-08-19T11:08:53;25.32;25.77
67133;HTU21D;54052;53.542;49.408;2022-08-19T11:11:20;25.29;26.45
67133;HTU21D;54052;53.542;49.408;2022-08-19T11:13:47;25.28;25.99
67133;HTU21D;54052;53.542;49.408;2022-08-19T11:16:24;25.30;26.05
67133;HTU21D;54052;53.542;49.408;2022-08-19T11:18:54;25.36;25.88
67133;HTU21D;54052;53.542;49.408;2022-08-19T11:21:26;25.32;26.33
67133;HTU21D;54052;53.542;49.408;2022-08-19T11:23:56;25.34;26.49
67133;HTU21D;54052;53.542;49.408;2022-08-19T11:26:23;25.34;25.89
67133;HTU21D;54052;53.542;49.408;2022-08-19T11:28:50;25.27;26.04
67133;HTU21D;54052;53.542;49.408;2022-08-19T11:31:21;25.27;25.56
67133;HTU21D;54052;53.542;49.408;2022-08-19T11:33:48;25.27;26.05
67133;HTU21D;54052;53.542;49.408;2022-08-19T11:36:18;25.30;26.10
67133;HTU21D;54052;53.542;49.408;2022-08-19T11:38:45;25.30;25.17
67133;HTU21D;54052;53.542;49.408;2022-08-19T11:41:15;25.34;24.73
67133;HTU21D;54052;53.542;49.408;2022-08-19T11:43:41;25.27;24.41
67133;HTU21D;54052;53.542;49.408;2022-08-19T11:46:10;25.28;25.18
67133;HTU21D;54052;53.542;49.408;2022-08-19T11:48:37;25.28;24.65
67133;HTU21D;54052;53.542;49.408;2022-08-19T11:51:06;25.27;24.59
67133;HTU21D;54052;53.542;49.408;2022-08-19T11:53:33;25.35;24.39
67133;HTU21D;54052;53.542;49.408;2022-08-19T11:56:00;25.42;24.78
67133;HTU21D;54052;53.542;49.408;2022-08-19T11:58:26;25.45;24.46
67133;HTU21D;54052;53.542;49.408;2022-08-19T12:00:52;25.37;24.73
67133;HTU21D;54052;53.542;49.408;2022-08-19T12:03:18;25.36;24.71
67133;HTU21D;54052;53.542;49.408;2022-08-19T12:05:45;25.40;24.47
67133;HTU21D;54052;53.542;49.408;2022-08-19T12:08:12;25.35;23.88
67133;HTU21D;54052;53.542;49.408;2022-08-19T12:10:41;25.31;23.66
67133;HTU21D;54052;53.542;49.408;2022-08-19T12:13:09;25.43;24.14
67133;HTU21D;54052;53.542;49.408;2022-08-19T12:15:37;25.45;25.16
67133;HTU21D;54052;53.542;49.408;2022-08-19T12:18:04;25.51;23.79
67133;HTU21D;54052;53.542;49.408;2022-08-19T12:20:30;25.54;24.26
67133;HTU21D;54052;53.542;49.408;2022-08-19T12:22:56;25.38;23.56
67133;HTU21D;54052;53.542;49.408;2022-08-19T12:25:23;25.42;23.63
67133;HTU21D;54052;53.542;49.408;2022-08-19T12:27:49;25.32;23.80
67133;HTU21D;54052;53.542;49.408;2022-08-19T12:30:15;25.20;23.88
67133;HTU21D;54052;53.542;49.408;2022-08-19T12:32:41;25.22;23.31
67133;HTU21D;54052;53.542;49.408;2022-08-19T12:35:07;25.22;23.30
67133;HTU21D;54052;53.542;49.408;2022-08-19T12:37:34;25.24;24.22
67133;HTU21D;54052;53.542;49.408;2022-08-19T12:40:01;25.34;23.37
67133;HTU21D;54052;53.542;49.408;2022-08-19T12:42:28;25.36;23.66
67133;HTU21D;54052;53.542;49.408;2022-08-19T12:44:59;25.22;23.78
67133;HTU21D;54052;53.542;49.408;2022-08-19T12:47:28;25.13;24.03
67133;HTU21D;54052;53.542;49.408;2022-08-19T12:49:54;25.05;24.09
67133;HTU21D;54052;53.542;49.408;2022-08-19T12:52:20;25.04;24.54
67133;HTU21D;54052;53.542;49.408;2022-08-19T12:54:46;25.15;24.35
67133;HTU21D;54052;53.542;49.408;2022-08-19T12:57:12;25.15;24.82
67133;HTU21D;54052;53.542;49.408;2022-08-19T12:59:38;25.12;24.09
67133;HTU21D;54052;53.542;49.408;2022-08-19T13:02:08;25.01;24.21
67133;HTU21D;54052;53.542;49.408;2022-08-19T13:04:35;25.02;24.12
67133;HTU21D;54052;53.542;49.408;2022-08-19T13:07:03;25.05;23.15
67133;HTU21D;54052;53.542;49.408;2022-08-19T13:09:29;25.02;24.25
67133;HTU21D;54052;53.542;49.408;2022-08-19T13:11:55;25.06;23.36
67133;HTU21D;54052;53.542;49.408;2022-08-19T13:14:22;25.04;23.50
67133;HTU21D;54052;53.542;49.408;2022-08-19T13:16:48;24.98;24.09
67133;HTU21D;54052;53.542;49.408;2022-08-19T13:19:14;25.03;23.82
67133;HTU21D;54052;53.542;49.408;2022-08-19T13:21:40;25.12;23.13
67133;HTU21D;54052;53.542;49.408;2022-08-19T13:24:06;25.15;22.55
67133;HTU21D;54052;53.542;49.408;2022-08-19T13:26:32;25.06;22.46
67133;HTU21D;54052;53.542;49.408;2022-08-19T13:28:58;24.99;22.48
67133;HTU21D;54052;53.542;49.408;2022-08-19T13:31:43;24.94;23.17
67133;HTU21D;54052;53.542;49.408;2022-08-19T13:34:33;24.92;22.35
67133;HTU21D;54052;53.542;49.408;2022-08-19T13:37:02;24.79;22.59
67133;HTU21D;54052;53.542;49.408;2022-08-19T13:39:32;24.78;22.28
67133;HTU21D;54052;53.542;49.408;2022-08-19T13:41:59;24.75;22.32
67133;HTU21D;54052;53.542;49.408;2022-08-19T13:44:27;24.72;22.50
67133;HTU21D;54052;53.542;49.408;2022-08-19T13:47:00;24.82;22.72
67133;HTU21D;54052;53.542;49.408;2022-08-19T13:49:31;24.78;22.26
67133;HTU21D;54052;53.542;49.408;2022-08-19T13:51:57;24.76;22.15
67133;HTU21D;54052;53.542;49.408;2022-08-19T13:54:24;24.74;22.27
67133;HTU21D;54052;53.542;49.408;2022-08-19T13:56:52;24.64;22.28
67133;HTU21D;54052;53.542;49.408;2022-08-19T13:59:18;24.64;24.06
67133;HTU21D;54052;53.542;49.408;2022-08-19T14:01:44;24.71;23.59
67133;HTU21D;54052;53.542;49.408;2022-08-19T14:04:10;24.72;21.41
67133;HTU21D;54052;53.542;49.408;2022-08-19T14:06:36;24.63;21.44
67133;HTU21D;54052;53.542;49.408;2022-08-19T14:09:03;24.59;21.69
67133;HTU21D;54052;53.542;49.408;2022-08-19T14:11:30;24.49;21.40
67133;HTU21D;54052;53.542;49.408;2022-08-19T14:13:56;24.40;21.14
67133;HTU21D;54052;53.542;49.408;2022-08-19T14:16:22;24.31;21.66
67133;HTU21D;54052;53.542;49.408;2022-08-19T14:18:48;24.29;22.82
67133;HTU21D;54052;53.542;49.408;2022-08-19T14:21:17;24.26;22.11
67133;HTU21D;54052;53.542;49.408;2022-08-19T14:23:46;24.28;22.37
67133;HTU21D;54052;53.542;49.408;2022-08-19T14:26:15;24.13;22.07
67133;HTU21D;54052;53.542;49.408;2022-08-19T14:28:42;24.09;22.55
67133;HTU21D;54052;53.542;49.408;2022-08-19T14:31:12;24.01;22.98
67133;HTU21D;54052;53.542;49.408;2022-08-19T14:33:39;23.91;23.43
67133;HTU21D;54052;53.542;49.408;2022-08-19T14:36:06;23.84;23.44
67133;HTU21D;54052;53.542;49.408;2022-08-19T14:38:32;23.79;23.89
67133;HTU21D;54052;53.542;49.408;2022-08-19T14:43:33;23.64;24.00
67133;HTU21D;54052;53.542;49.408;2022-08-19T14:46:00;23.60;23.75
67133;HTU21D;54052;53.542;49.408;2022-08-19T14:48:25;23.58;23.99
67133;HTU21D;54052;53.542;49.408;2022-08-19T14:50:52;23.54;24.09
67133;HTU21D;54052;53.542;49.408;2022-08-19T14:53:18;23.51;24.10
67133;HTU21D;54052;53.542;49.408;2022-08-19T14:55:45;23.44;24.30
67133;HTU21D;54052;53.542;49.408;2022-08-19T14:58:16;23.42;24.10
67133;HTU21D;54052;53.542;49.408;2022-08-19T15:00:42;23.39;24.14
67133;HTU21D;54052;53.542;49.408;2022-08-19T15:03:07;23.40;24.49
67133;HTU21D;54052;53.542;49.408;2022-08-19T15:05:33;23.37;24.49
67133;HTU21D;54052;53.542;49.408;2022-08-19T15:08:04;23.38;24.37
67133;HTU21D;54052;53.542;49.408;2022-08-19T15:10:30;23.34;25.04
67133;HTU21D;54052;53.542;49.408;2022-08-19T15:12:56;23.29;25.11
67133;HTU21D;54052;53.542;49.408;2022-08-19T15:15:22;23.25;25.24
67133;HTU21D;54052;53.542;49.408;2022-08-19T15:17:48;23.18;25.18
67133;HTU21D;54052;53.542;49.408;2022-08-19T15:20:17;23.11;25.42